Flight Track Log - Related Links

Times and Time Zones

All times are in EDT time to prevent confusion due to time zone crossing. See the AAL24 flight status page for this flight to view local times or setup timezone preferences in your user account.

Time Position Orientation Groundspeed Altitude Reporting Facility
EDT Latitude Longitude Course Direction KTS MPH feet Rate Location/Type
Wed 10:13:05 AM 37.6333 -122.3667 31° Northeast 176 203 800  Level Northern Cal TRACON
Wed 10:13:59 AM 37.6667 -122.3167 50° Northeast 213 245 2,400 2,263 Climbing Northern Cal TRACON
Wed 10:14:59 AM 37.7167 -122.2500 47° Northeast 271 312 5,100 2,494 Climbing Northern Cal TRACON
Wed 10:15:00 AM 37.6472 -122.4520 119° Southeast  Level FlightAware Approximate
Wed 10:15:16 AM 37.7319 -122.2403 27° Northeast 247 284 5,600  Level Oakland Center
Wed 10:16:00 AM 37.6510 -122.3323 38° Northeast  Level FlightAware Approximate
Wed 10:16:17 AM 37.7942 -122.1800 37° Northeast 276 318 9,100  Level Oakland Center
Wed 10:17:00 AM 37.7433 -122.2368 46° Northeast  Level FlightAware Approximate
Wed 10:17:18 AM 37.8578 -122.1197 37° Northeast 286 329 11,600  Level Oakland Center
Wed 10:18:00 AM 37.8360 -122.1439 31° Northeast  Level FlightAware Approximate
Wed 10:18:19 AM 37.9344 -122.0483 36° Northeast 339 390 13,800  Level Oakland Center
Wed 10:19:20 AM 38.0153 -121.9678 38° Northeast 368 423 16,100 2,656 Climbing Oakland Center
Wed 10:20:21 AM 38.1203 -121.8642 38° Northeast 398 458 19,200 2,656 Climbing Oakland Center
Wed 10:21:22 AM 38.2106 -121.7775 37° Northeast 407 468 21,500 2,115 Climbing Oakland Center
Wed 10:22:23 AM 38.3042 -121.6861 37° Northeast 422 486 23,500 2,016 Climbing Oakland Center
Wed 10:23:24 AM 38.4011 -121.5919 37° Northeast 438 504 25,600 1,967 Climbing Oakland Center
Wed 10:24:25 AM 38.4864 -121.4794 46° Northeast 443 510 27,500 1,659 Climbing Oakland Center
Wed 10:25:27 AM 38.5608 -121.3514 53° Northeast 450 518 29,000 732 Climbing Oakland Center
Wed 10:26:28 AM 38.6333 -121.2233 54° Northeast 448 516 29,000  Level Oakland Center
Wed 10:27:29 AM 38.7058 -121.1019 53° Northeast 447 514 29,000  Level Oakland Center
Wed 10:28:30 AM 38.7800 -120.9733 53° Northeast 448 516 29,000  Level Oakland Center
Wed 10:29:31 AM 38.8692 -120.8181 54° Northeast 450 518 29,000  Level Oakland Center
Wed 10:30:32 AM 38.9439 -120.6886 53° Northeast 451 519 29,000  Level Oakland Center
Wed 10:31:34 AM 39.0181 -120.5600 53° Northeast 448 516 29,000  Level Oakland Center
Wed 10:32:35 AM 39.0906 -120.4317 54° Northeast 445 512 29,000  Level Oakland Center
Wed 10:33:36 AM 39.1647 -120.3053 53° Northeast 442 509 29,000  Level Oakland Center
Wed 10:34:37 AM 39.2358 -120.1786 54° Northeast 438 504 29,000  Level Oakland Center
Wed 10:35:38 AM 39.3169 -120.0350 54° Northeast 439 505 29,000  Level Oakland Center
Wed 10:36:40 AM 39.3892 -119.9086 53° Northeast 437 503 29,000  Level Oakland Center
Wed 10:37:41 AM 39.4608 -119.7803 54° Northeast 439 505 29,000  Level Oakland Center
Wed 10:38:42 AM 39.5328 -119.6525 54° Northeast 439 505 29,000  Level Oakland Center
Wed 10:39:43 AM 39.6047 -119.5244 54° Northeast 438 504 29,000  Level Oakland Center
Wed 10:40:45 AM 39.6761 -119.3942 55° Northeast 440 506 29,000  Level Oakland Center
Wed 10:41:46 AM 39.7489 -119.2642 54° Northeast 442 509 29,000  Level Oakland Center
Wed 10:42:47 AM 39.8208 -119.1342 54° Northeast 440 506 29,000  Level Oakland Center
Wed 10:43:49 AM 39.8922 -119.0033 55° Northeast 440 506 29,000  Level Oakland Center
Wed 10:44:50 AM 39.9650 -118.8719 54° Northeast 444 511 29,000  Level Oakland Center
Wed 10:45:51 AM 40.0367 -118.7411 54° Northeast 442 509 29,000  Level Oakland Center
Wed 10:46:52 AM 40.1067 -118.6086 55° Northeast 442 509 29,000  Level Oakland Center
Wed 10:47:54 AM 40.1578 -118.4619 65° Northeast 445 512 29,000  Level Oakland Center
Wed 10:48:47 AM 40.1967 -118.3189 70° East 448 516 29,000  Level Salt Lake Center
Wed 10:49:56 AM 40.2492 -118.1219 71° East 446 513 29,000  Level Oakland Center
Wed 10:50:57 AM 40.2889 -117.9753 70° East 449 517 29,000  Level Oakland Center
Wed 10:51:59 AM 40.3294 -117.8294 70° East 447 514 29,000  Level Oakland Center
Wed 10:52:54 AM 40.3694 -117.6814 70° East 447 514 29,000  Level Salt Lake Center
Wed 10:53:56 AM 40.4086 -117.5344 71° East 446 513 29,000  Level Salt Lake Center
Wed 10:54:58 AM 40.4536 -117.3636 71° East 444 511 29,000  Level Salt Lake Center
Wed 10:55:59 AM 40.4922 -117.2167 71° East 442 509 29,000  Level Salt Lake Center
Wed 10:57:01 AM 40.5375 -117.0433 71° East 445 512 29,000  Level Salt Lake Center
Wed 10:58:03 AM 40.5764 -116.8939 71° East 444 511 29,000  Level Salt Lake Center
Wed 10:59:05 AM 40.6161 -116.7467 70° East 442 509 29,000  Level Salt Lake Center
Wed 11:00:07 AM 40.6631 -116.5750 70° East 443 510 29,000  Level Salt Lake Center
Wed 11:01:09 AM 40.7036 -116.4278 70° East 444 511 29,000  Level Salt Lake Center
Wed 11:02:11 AM 40.7492 -116.2561 71° East 444 511 29,000  Level Salt Lake Center
Wed 11:03:13 AM 40.7886 -116.1069 71° East 447 514 29,000  Level Salt Lake Center
Wed 11:04:15 AM 40.8267 -115.9600 71° East 444 511 29,000  Level Salt Lake Center
Wed 11:05:17 AM 40.8728 -115.7869 71° East 445 512 29,000  Level Salt Lake Center
Wed 11:06:19 AM 40.9117 -115.6389 71° East 446 513 29,000  Level Salt Lake Center
Wed 11:07:21 AM 40.9561 -115.4639 71° East 449 517 29,000  Level Salt Lake Center
Wed 11:08:23 AM 40.9947 -115.3158 71° East 447 514 29,000  Level Salt Lake Center
Wed 11:09:25 AM 41.0389 -115.1400 72° East 450 518 29,000  Level Salt Lake Center
Wed 11:10:27 AM 41.0775 -114.9897 71° East 450 518 29,000  Level Salt Lake Center
Wed 11:11:29 AM 41.1228 -114.8106 71° East 450 518 29,000  Level Salt Lake Center
Wed 11:12:31 AM 41.1611 -114.6525 72° East 451 519 29,000  Level Salt Lake Center
Wed 11:13:33 AM 41.2006 -114.4953 72° East 450 518 29,000  Level Salt Lake Center
Wed 11:14:35 AM 41.2408 -114.3381 71° East 450 518 29,000  Level Salt Lake Center
Wed 11:15:37 AM 41.2789 -114.1800 72° East 450 518 29,000  Level Salt Lake Center
Wed 11:16:39 AM 41.3169 -114.0222 72° East 449 517 29,000  Level Salt Lake Center
Wed 11:17:41 AM 41.3611 -113.8325 73° East 449 517 29,000  Level Salt Lake Center
Wed 11:18:43 AM 41.3764 -113.6686 83° East 448 516 29,000  Level Salt Lake Center
Wed 11:19:45 AM 41.3850 -113.5039 86° East 447 514 29,000  Level Salt Lake Center
Wed 11:20:47 AM 41.3947 -113.3389 85° East 447 514 29,000  Level Salt Lake Center
Wed 11:21:49 AM 41.4047 -113.1733 85° East 449 517 29,000  Level Salt Lake Center
Wed 11:22:51 AM 41.4164 -113.0081 85° East 449 517 29,000  Level Salt Lake Center
Wed 11:23:53 AM 41.4272 -112.8097 86° East 448 516 29,000  Level Salt Lake Center
Wed 11:24:55 AM 41.4367 -112.6442 86° East 448 516 29,000  Level Salt Lake Center
Wed 11:25:57 AM 41.4464 -112.4789 85° East 447 514 29,000  Level Salt Lake Center
Wed 11:26:59 AM 41.4556 -112.3122 86° East 450 518 29,000  Level Salt Lake Center
Wed 11:28:01 AM 41.4650 -112.1469 86° East 447 514 29,000  Level Salt Lake Center
Wed 11:30:05 AM 41.4825 -111.8133 86° East 448 516 29,000  Level Salt Lake Center
Wed 11:31:07 AM 41.4906 -111.6472 86° East 447 514 29,000  Level Salt Lake Center
Wed 11:32:09 AM 41.5000 -111.4483 86° East 444 511 29,000  Level Salt Lake Center
Wed 11:33:11 AM 41.5083 -111.2825 86° East 447 514 29,000  Level Salt Lake Center
Wed 11:34:13 AM 41.5142 -111.1189 87° East 443 510 29,000  Level Salt Lake Center
Wed 11:35:15 AM 41.5231 -110.9389 86° East 445 512 29,000  Level Salt Lake Center
Wed 11:36:17 AM 41.5294 -110.7817 87° East 445 512 29,000  Level Salt Lake Center
Wed 11:37:19 AM 41.5378 -110.5981 86° East 444 511 29,000  Level Salt Lake Center
Wed 11:38:22 AM 41.5439 -110.4414 87° East 444 511 29,000  Level Salt Lake Center
Wed 11:39:24 AM 41.5497 -110.2575 88° East 444 511 29,000  Level Salt Lake Center
Wed 11:40:26 AM 41.5558 -110.0994 87° East 445 512 29,000  Level Salt Lake Center
Wed 11:41:28 AM 41.5619 -109.9408 87° East 446 513 29,000 726 Level Salt Lake Center
Wed 11:42:30 AM 41.5681 -109.7575 87° East 443 510 30,500 1,597 Climbing Salt Lake Center
Wed 11:43:32 AM 41.5731 -109.6061 87° East 430 495 32,300 1,839 Climbing Salt Lake Center
Wed 11:44:34 AM 41.5789 -109.4258 87° East 432 497 34,300 1,306 Climbing Salt Lake Center
Wed 11:45:36 AM 41.5831 -109.2744 88° East 426 490 35,000 339 Climbing Salt Lake Center
Wed 11:46:38 AM 41.5878 -109.0981 88° East 421 484 35,000  Level Salt Lake Center
Wed 11:47:40 AM 41.5950 -108.9481 86° East 417 480 35,000  Level Salt Lake Center
Wed 11:48:42 AM 41.6075 -108.7989 84° East 420 483 35,000  Level Salt Lake Center
Wed 11:49:44 AM 41.6208 -108.6253 84° East 421 484 35,000  Level Salt Lake Center
Wed 11:50:46 AM 41.6314 -108.4772 85° East 418 481 35,000  Level Salt Lake Center
Wed 11:51:48 AM 41.6439 -108.3022 84° East 422 486 35,000  Level Salt Lake Center
Wed 11:52:50 AM 41.6544 -108.1519 85° East 424 488 35,000  Level Salt Lake Center
Wed 11:53:45 AM 41.6667 -107.9994 84° East 428 493 35,000  Level Denver Center
Wed 11:54:47 AM 41.6786 -107.8253 85° East 425 489 35,000  Level Denver Center
Wed 11:55:49 AM 41.6892 -107.6736 85° East 428 493 35,000  Level Denver Center
Wed 11:56:51 AM 41.7003 -107.4972 85° East 428 493 35,000  Level Denver Center
Wed 11:57:53 AM 41.7103 -107.3467 85° East 427 491 35,000  Level Denver Center
Wed 11:58:55 AM 41.7206 -107.1681 86° East 431 496 35,000  Level Denver Center
Wed 11:59:57 AM 41.7308 -107.0178 85° East 427 491 35,000  Level Denver Center
Wed 12:00:59 PM 41.7400 -106.8647 85° East 431 496 35,000  Level Denver Center
Wed 12:02:01 PM 41.7508 -106.6878 85° East 430 495 35,000  Level Denver Center
Wed 12:03:03 PM 41.7597 -106.5361 85° East 430 495 35,000  Level Denver Center
Wed 12:04:05 PM 41.7711 -106.3614 85° East 426 490 35,000  Level Denver Center
Wed 12:05:07 PM 41.7803 -106.2100 85° East 426 490 35,000  Level Denver Center
Wed 12:06:09 PM 41.7889 -106.0306 86° East 431 496 35,000  Level Denver Center
Wed 12:07:11 PM 41.7972 -105.8786 86° East 430 495 35,000  Level Denver Center
Wed 12:08:13 PM 41.8050 -105.7019 87° East 427 491 35,000  Level Denver Center
Wed 12:09:15 PM 41.8131 -105.5514 86° East 425 489 35,000  Level Denver Center
Wed 12:10:17 PM 41.8211 -105.3758 86° East 425 489 35,000  Level Denver Center
Wed 12:11:20 PM 41.8275 -105.2250 87° East 425 489 35,000  Level Denver Center
Wed 12:12:22 PM 41.8358 -105.0469 86° East 428 493 35,000  Level Denver Center
Wed 12:13:24 PM 41.8422 -104.8947 87° East 429 494 35,000  Level Denver Center
Wed 12:14:26 PM 41.8594 -104.7183 82° East 431 496 35,000  Level Denver Center
Wed 12:15:28 PM 41.8797 -104.5661 80° East 432 497 35,000  Level Denver Center
Wed 12:16:30 PM 41.9028 -104.3906 80° East 432 497 35,000  Level Denver Center
Wed 12:17:32 PM 41.9214 -104.2386 81° East 434 499 35,000  Level Denver Center
Wed 12:18:34 PM 41.9442 -104.0594 80° East 437 503 35,000  Level Denver Center
Wed 12:19:36 PM 41.9628 -103.9069 81° East 435 501 35,000  Level Denver Center
Wed 12:20:38 PM 41.9842 -103.7283 81° East 436 502 35,000  Level Denver Center
Wed 12:21:40 PM 42.0028 -103.5733 81° East 439 505 35,000  Level Denver Center
Wed 12:22:42 PM 42.0250 -103.3931 81° East 440 506 35,000  Level Denver Center
Wed 12:23:44 PM 42.0419 -103.2383 82° East 439 505 35,000  Level Denver Center
Wed 12:24:46 PM 42.0633 -103.0564 81° East 441 507 35,000  Level Denver Center
Wed 12:25:48 PM 42.0803 -102.9000 82° East 442 509 35,000  Level Denver Center
Wed 12:26:50 PM 42.1006 -102.7197 81° East 437 503 35,000  Level Denver Center
Wed 12:27:52 PM 42.1164 -102.5639 82° East 439 505 35,000  Level Denver Center
Wed 12:28:54 PM 42.1367 -102.3828 81° East 439 505 35,000  Level Denver Center
Wed 12:29:56 PM 42.1542 -102.2261 81° East 440 506 35,000  Level Denver Center
Wed 12:30:58 PM 42.1708 -102.0572 82° East 439 505 35,000  Level Denver Center
Wed 12:32:01 PM 42.1867 -101.9006 82° East 441 507 35,000  Level Denver Center
Wed 12:33:03 PM 42.2069 -101.7158 82° East 445 512 35,000  Level Denver Center
Wed 12:34:05 PM 42.2217 -101.5594 83° East 442 509 35,000  Level Denver Center
Wed 12:35:07 PM 42.2411 -101.3719 82° East 450 518 35,000  Level Denver Center
Wed 12:36:09 PM 42.2556 -101.2125 83° East 448 516 35,000  Level Denver Center
Wed 12:37:11 PM 42.2736 -101.0244 83° East 452 520 35,000  Level Denver Center
Wed 12:38:13 PM 42.2892 -100.8631 83° East 453 521 35,000  Level Denver Center
Wed 12:39:15 PM 42.3061 -100.6722 83° East 458 527 35,000  Level Denver Center
Wed 12:40:16 PM 42.3189 -100.5344 83° East 460 529 35,000  Level Denver Center
Wed 12:41:19 PM 42.3386 -100.3147 83° East 461 531 35,000  Level Denver Center
Wed 12:42:21 PM 42.3536 -100.1475 83° East 465 535 35,000  Level Denver Center
Wed 12:42:52 PM 42.3628 -100.0464 83° East 462 532 35,000  Level Minneapolis Center
Wed 12:43:23 PM 42.3669 -99.9811 85° East 466 536 35,000  Level Denver Center
Wed 12:43:54 PM 42.3772 -99.8703 83° East 469 540 35,000  Level Minneapolis Center
Wed 12:44:56 PM 42.3917 -99.6917 84° East 476 548 35,000  Level Minneapolis Center
Wed 12:45:58 PM 42.4056 -99.5231 84° East 480 552 35,000  Level Minneapolis Center
Wed 12:46:29 PM 42.4128 -99.4267 84° East 482 555 35,000  Level Denver Center
Wed 12:47:00 PM 42.4197 -99.3417 84° East 484 557 35,000  Level Minneapolis Center
Wed 12:48:02 PM 42.4369 -99.1225 84° East 487 560 35,000  Level Minneapolis Center
Wed 12:49:03 PM 42.4486 -98.9733 84° East 492 566 35,000  Level Minneapolis Center
Wed 12:50:06 PM 42.4644 -98.7497 84° East 497 572 35,000  Level Minneapolis Center
Wed 12:51:08 PM 42.4775 -98.5617 85° East 500 575 35,000  Level Minneapolis Center
Wed 12:52:10 PM 42.4853 -98.3711 87° East 505 581 35,000  Level Minneapolis Center
Wed 12:53:12 PM 42.4947 -98.1811 86° East 506 582 35,000  Level Minneapolis Center
Wed 12:54:14 PM 42.5033 -97.9564 87° East 502 578 35,000  Level Minneapolis Center
Wed 12:55:16 PM 42.5111 -97.7656 87° East 504 580 35,000  Level Minneapolis Center
Wed 12:56:18 PM 42.5203 -97.5728 86° East 508 585 35,000  Level Minneapolis Center
Wed 12:57:20 PM 42.5297 -97.3808 86° East 510 587 35,000  Level Minneapolis Center
Wed 12:58:22 PM 42.5364 -97.1903 87° East 508 585 35,000  Level Minneapolis Center
Wed 12:59:23 PM 42.5453 -96.9997 86° East 507 583 35,000  Level Minneapolis Center
Wed 01:00:25 PM 42.5508 -96.8492 87° East 505 581 35,000  Level Minneapolis Center
Wed 01:01:27 PM 42.5586 -96.5842 88° East 502 578 35,000  Level Minneapolis Center
Wed 01:02:29 PM 42.5656 -96.3972 87° East 499 574 35,000  Level Minneapolis Center
Wed 01:03:31 PM 42.5708 -96.2075 88° East 500 575 35,000 581 Level Minneapolis Center
Wed 01:04:33 PM 42.5767 -96.0181 88° East 502 578 36,200 968 Climbing Minneapolis Center
Wed 01:05:35 PM 42.5819 -95.8333 88° East 495 570 37,000 387 Climbing Minneapolis Center
Wed 01:06:37 PM 42.5867 -95.6531 88° East 484 557 37,000  Level Minneapolis Center
Wed 01:07:39 PM 42.5903 -95.4656 88° East 489 563 37,000  Level Minneapolis Center
Wed 01:08:41 PM 42.5950 -95.2811 88° East 490 564 37,000  Level Minneapolis Center
Wed 01:09:43 PM 42.5992 -95.0572 88° East 492 566 37,000  Level Minneapolis Center
Wed 01:10:45 PM 42.6025 -94.8725 89° East 492 566 37,000  Level Minneapolis Center
Wed 01:11:47 PM 42.6050 -94.6881 89° East 490 564 37,000  Level Minneapolis Center
Wed 01:12:49 PM 42.6069 -94.5083 89° East 489 563 37,000  Level Minneapolis Center
Wed 01:13:50 PM 42.6092 -94.3669 89° East 482 555 37,000  Level Minneapolis Center
Wed 01:14:53 PM 42.6119 -94.1558 89° East 473 544 37,000  Level Minneapolis Center
Wed 01:15:55 PM 42.6131 -93.9467 90° East 468 539 37,000  Level Minneapolis Center
Wed 01:16:57 PM 42.6144 -93.7728 89° East 466 536 37,000  Level Minneapolis Center
Wed 01:18:11 PM 42.6150 -93.6003 90° East 465 535 37,000  Level Minneapolis Center
Wed 01:19:25 PM 42.6158 -93.3919 90° East 465 535 37,000  Level Minneapolis Center
Wed 01:20:27 PM 42.6164 -93.1508 90° East 461 531 37,000  Level Minneapolis Center
Wed 01:21:29 PM 42.6164 -92.9775 90° East 465 535 37,000  Level Minneapolis Center
Wed 01:22:31 PM 42.6158 -92.8053 90° East 462 532 37,000  Level Minneapolis Center
Wed 01:23:33 PM 42.6153 -92.6339 90° East 461 531 37,000  Level Minneapolis Center
Wed 01:24:35 PM 42.6139 -92.4606 91° East 464 534 37,000  Level Minneapolis Center
Wed 01:25:37 PM 42.6119 -92.2547 91° East 463 533 37,000  Level Minneapolis Center
Wed 01:26:26 PM 42.6103 -92.1161 91° East 463 533 37,000  Level Chicago Center
Wed 01:27:28 PM 42.6089 -91.9456 91° East 460 529 37,000  Level Chicago Center
Wed 01:28:30 PM 42.6075 -91.7744 91° East 463 533 37,000  Level Chicago Center
Wed 01:29:32 PM 42.6044 -91.5711 91° East 464 534 37,000  Level Chicago Center
Wed 01:30:34 PM 42.6033 -91.4028 90° East 460 529 37,000  Level Chicago Center
Wed 01:31:36 PM 42.6000 -91.2328 91° East 460 529 37,000  Level Chicago Center
Wed 01:32:38 PM 42.5961 -91.0597 92° East 465 535 37,000  Level Chicago Center
Wed 01:33:40 PM 42.5931 -90.8542 91° East 462 532 37,000  Level Chicago Center
Wed 01:34:42 PM 42.5889 -90.6806 92° East 466 536 37,000  Level Chicago Center
Wed 01:35:44 PM 42.5853 -90.5086 92° East 462 532 37,000  Level Chicago Center
Wed 01:36:46 PM 42.5817 -90.3356 92° East 465 535 37,000  Level Chicago Center
Wed 01:37:48 PM 42.5764 -90.1639 92° East 463 533 37,000  Level Chicago Center
Wed 01:38:50 PM 42.5708 -89.9564 92° East 462 532 37,000  Level Chicago Center
Wed 01:39:52 PM 42.5653 -89.7906 93° East 465 535 37,000  Level Chicago Center
Wed 01:40:54 PM 42.5611 -89.6172 92° East 462 532 37,000  Level Chicago Center
Wed 01:41:56 PM 42.5544 -89.4114 92° East 467 537 37,000  Level Chicago Center
Wed 01:42:58 PM 42.5481 -89.2364 93° East 466 536 37,000  Level Chicago Center
Wed 01:44:00 PM 42.5411 -89.0614 93° East 464 534 37,000  Level Chicago Center
Wed 01:45:03 PM 42.5361 -88.8881 92° East 464 534 37,000  Level Chicago Center
Wed 01:46:05 PM 42.5289 -88.7128 93° East 466 536 37,000  Level Chicago Center
Wed 01:47:07 PM 42.5214 -88.5094 93° East 466 536 37,000  Level Chicago Center
Wed 01:48:09 PM 42.5144 -88.3353 93° East 465 535 37,000  Level Chicago Center
Wed 01:49:11 PM 42.5072 -88.1642 93° East 459 528 37,000  Level Chicago Center
Wed 01:50:13 PM 42.5000 -87.9944 93° East 454 522 37,000  Level Chicago Center
Wed 01:51:15 PM 42.4997 -87.7958 90° East 455 524 37,000  Level Chicago Center
Wed 01:52:17 PM 42.4994 -87.6447 90° East 451 519 37,000  Level Chicago Center
Wed 01:53:19 PM 42.4986 -87.4758 90° East 450 518 37,000  Level Chicago Center
Wed 01:54:21 PM 42.4981 -87.2731 90° East 450 518 37,000  Level Chicago Center
Wed 01:55:23 PM 42.4956 -87.1089 91° East 441 507 37,000  Level Chicago Center
Wed 01:56:25 PM 42.4950 -86.9461 90° East 435 501 37,000  Level Chicago Center
Wed 01:57:27 PM 42.4928 -86.7803 91° East 441 507 37,000  Level Chicago Center
Wed 01:58:29 PM 42.4917 -86.6014 90° East 442 509 37,000  Level Chicago Center
Wed 01:59:31 PM 42.4897 -86.4394 91° East 434 499 37,000  Level Chicago Center
Wed 02:00:32 PM 42.4875 -86.2739 91° East 441 507 37,000  Level Chicago Center
Wed 02:01:34 PM 42.4839 -86.1072 92° East 446 513 37,000  Level Chicago Center
Wed 02:02:36 PM 42.4814 -85.9394 91° East 448 516 37,000  Level Chicago Center
Wed 02:03:38 PM 42.4781 -85.7342 91° East 451 519 37,000  Level Chicago Center
Wed 02:04:40 PM 42.4747 -85.5692 92° East 452 520 37,000  Level Chicago Center
Wed 02:05:42 PM 42.4714 -85.4003 91° East 452 520 37,000  Level Chicago Center
Wed 02:06:44 PM 42.4678 -85.2364 92° East 442 509 37,000  Level Chicago Center
Wed 02:07:45 PM 42.4642 -85.0744 92° East 433 498 37,000  Level Chicago Center
Wed 02:08:47 PM 42.4594 -84.8833 92° East 427 491 37,000  Level Chicago Center
Wed 02:09:49 PM 42.4542 -84.7236 93° East 427 491 37,000  Level Chicago Center
Wed 02:10:51 PM 42.4500 -84.5631 92° East 428 493 37,000  Level Chicago Center
Wed 02:11:58 PM 42.4431 -84.3933 93° East 427 491 37,000  Level Cleveland Center
Wed 02:12:58 PM 42.4375 -84.2381 93° East 427 491 37,000  Level Cleveland Center
Wed 02:13:58 PM 42.4322 -84.0775 92° East 427 491 37,000  Level Cleveland Center
Wed 02:14:58 PM 42.4267 -83.9056 92° East 422 486 37,000  Level Cleveland Center
Wed 02:15:58 PM 42.4208 -83.7419 93° East 422 486 37,000  Level Cleveland Center
Wed 02:16:58 PM 42.4189 -83.5872 91° East 422 486 37,000  Level Cleveland Center
Wed 02:17:58 PM 42.4061 -83.4289 96° East 427 491 37,000  Level Cleveland Center
Wed 02:18:58 PM 42.4017 -83.2714 92° East 422 486 37,000  Level Cleveland Center
Wed 02:19:58 PM 42.3950 -83.1081 93° East 428 493 37,000  Level Cleveland Center
Wed 02:20:58 PM 42.3900 -82.9503 92° East 423 487 37,000  Level Cleveland Center
Wed 02:21:58 PM 42.3806 -82.7925 95° East 423 487 37,000 -250 Level Cleveland Center
Wed 02:22:58 PM 42.3753 -82.6322 92° East 423 487 36,500 -500 Descending Cleveland Center
Wed 02:23:58 PM 42.3694 -82.4803 93° East 423 487 36,000 -250 Descending Cleveland Center
Wed 02:24:58 PM 42.3614 -82.3283 94° East 423 487 36,000  Level Cleveland Center
Wed 02:25:58 PM 42.3553 -82.1764 93° East 412 474 36,000  Level Cleveland Center
Wed 02:26:58 PM 42.3508 -82.0414 93° East 407 468 36,000  Level Cleveland Center
Wed 02:27:58 PM 42.3444 -81.8753 93° East 402 463 36,000  Level Cleveland Center
Wed 02:28:58 PM 42.3378 -81.7236 93° East 407 468 36,000  Level Cleveland Center
Wed 02:29:58 PM 42.3308 -81.5747 94° East 407 468 36,000  Level Cleveland Center
Wed 02:30:58 PM 42.3236 -81.4228 94° East 407 468 36,000  Level Cleveland Center
Wed 02:31:58 PM 42.3164 -81.2683 94° East 406 467 36,000  Level Cleveland Center
Wed 02:32:58 PM 42.3089 -81.1167 94° East 406 467 36,000  Level Cleveland Center
Wed 02:33:58 PM 42.3011 -80.9650 94° East 400 460 36,000  Level Cleveland Center
Wed 02:34:58 PM 42.2933 -80.8303 94° East 410 472 36,000  Level Cleveland Center
Wed 02:35:58 PM 42.2872 -80.6758 93° East 405 466 36,000  Level Cleveland Center
Wed 02:36:58 PM 42.2767 -80.5214 95° East 405 466 36,000  Level Cleveland Center
Wed 02:37:58 PM 42.2683 -80.3672 94° East 410 472 36,000  Level Cleveland Center
Wed 02:38:58 PM 42.2594 -80.2156 94° East 410 472 36,000  Level Cleveland Center
Wed 02:39:58 PM 42.2486 -80.0586 95° East 410 472 36,000  Level Cleveland Center
Wed 02:40:58 PM 42.2392 -79.8906 94° East 410 472 36,000  Level Cleveland Center
Wed 02:41:58 PM 42.2300 -79.7336 94° East 404 465 36,000  Level Cleveland Center
Wed 02:42:58 PM 42.2203 -79.5822 95° East 404 465 36,000  Level Cleveland Center
Wed 02:43:58 PM 42.2086 -79.4283 96° East 404 465 36,000  Level Cleveland Center
Wed 02:44:58 PM 42.1986 -79.2742 95° East 404 465 36,000  Level Cleveland Center
Wed 02:45:58 PM 42.1883 -79.1231 95° East 404 465 36,000  Level Cleveland Center
Wed 02:46:58 PM 42.1531 -78.9756 108° East 410 472 36,000  Level Cleveland Center
Wed 02:47:58 PM 42.1156 -78.8308 109° East 410 472 36,000  Level Cleveland Center
Wed 02:48:58 PM 42.0797 -78.6836 108° East 410 472 36,000  Level Cleveland Center
Wed 02:49:58 PM 42.0419 -78.5364 109° East 410 472 36,000  Level Cleveland Center
Wed 02:50:58 PM 42.0039 -78.3953 110° East 410 472 36,000  Level Cleveland Center
Wed 02:51:58 PM 41.9675 -78.2511 109° East 404 465 36,000  Level Cleveland Center
Wed 02:53:30 PM 41.8672 -78.0822 129° Southeast 390 449 36,000  Level New York Center
Wed 02:54:29 PM 41.8572 -77.9364 95° East 369 425 36,000  Level New York Center
Wed 02:55:29 PM 41.8453 -77.7875 96° East 375 432 36,000  Level New York Center
Wed 02:56:29 PM 41.8100 -77.6444 108° East 388 447 36,000  Level New York Center
Wed 02:57:30 PM 41.7739 -77.5072 109° East 394 453 36,000  Level New York Center
Wed 02:58:30 PM 41.7361 -77.3672 110° East 394 453 36,000  Level New York Center
Wed 02:59:29 PM 41.6978 -77.2272 110° East 394 453 36,000 -151 Level New York Center
Wed 03:00:29 PM 41.6597 -77.0875 110° East 394 453 35,700 -650 Descending New York Center
Wed 03:01:29 PM 41.6250 -76.9539 109° East 394 453 34,700 -992 Descending New York Center
Wed 03:02:30 PM 41.5903 -76.8203 109° East 389 448 33,700 -992 Descending New York Center
Wed 03:03:30 PM 41.5528 -76.6922 111° Southeast 384 442 32,700 -992 Descending New York Center
Wed 03:04:31 PM 41.5158 -76.5558 110° East 378 435 31,700 -893 Descending New York Center
Wed 03:05:31 PM 41.4842 -76.4367 109° East 378 435 30,900 -958 Descending New York Center
Wed 03:06:30 PM 41.4431 -76.2922 111° Southeast 388 447 29,800 -1,050 Descending New York Center
Wed 03:07:31 PM 41.4039 -76.1450 109° East 406 467 28,800 -992 Descending New York Center
Wed 03:08:31 PM 41.3642 -76.0092 111° Southeast 406 467 27,800 -1,017 Descending New York Center
Wed 03:09:29 PM 41.3244 -75.8736 111° Southeast 394 453 26,800 -1,017 Descending New York Center
Wed 03:10:29 PM 41.2864 -75.7381 110° East 394 453 25,800 -992 Descending New York Center
Wed 03:11:30 PM 41.2419 -75.6025 114° Southeast 394 453 24,800 -992 Descending New York Center
Wed 03:12:30 PM 41.1992 -75.4725 114° Southeast 394 453 23,800 -893 Descending New York Center
Wed 03:13:31 PM 41.1564 -75.3428 114° Southeast 384 442 23,000 -397 Descending New York Center
Wed 03:14:31 PM 41.1133 -75.2158 114° Southeast 384 442 23,000  Level New York Center
Wed 03:15:29 PM 41.0681 -75.0864 115° Southeast 384 442 23,000  Level New York Center
Wed 03:16:29 PM 41.0233 -74.9461 113° Southeast 384 442 23,000 -50 Level New York Center
Wed 03:17:29 PM 40.9881 -74.8172 110° East 378 435 22,900 -545 Descending New York Center
Wed 03:18:30 PM 40.9742 -74.6736 97° East 383 441 21,900 -992 Descending New York Center
Wed 03:19:30 PM 40.9578 -74.5353 99° East 383 441 20,900 -992 Descending New York Center
Wed 03:20:31 PM 40.9436 -74.3944 98° East 383 441 19,900 -942 Descending New York Center
Wed 03:21:31 PM 40.9289 -74.2592 98° East 383 441 19,000 -462 Descending New York Center
Wed 03:22:28 PM 40.9117 -74.1375 101° East 352 405 19,000 -341 Level New York Center
Wed 03:23:34 PM 40.8333 -74.0833 152° Southeast 293 337 18,300 -1,095 Descending New York TRACON
Wed 03:24:34 PM 40.7667 -74.0833 180° South 293 337 16,700 -1,550 Descending New York TRACON
Wed 03:25:34 PM 40.6833 -74.0667 171° South 289 333 15,200 -1,400 Descending New York TRACON
Wed 03:26:34 PM 40.6000 -74.0667 180° South 277 319 13,900 -1,100 Descending New York TRACON
Wed 03:27:34 PM 40.5500 -74.0167 143° Southeast 280 322 13,000 -450 Descending New York TRACON
Wed 03:28:34 PM 40.5000 -73.9333 128° Southeast 283 326 13,000  Level New York TRACON
Wed 03:29:34 PM 40.4333 -73.9333 180° South 227 261 13,000  Level New York TRACON
Wed 03:30:34 PM 40.3667 -73.9167 169° South 223 257 13,000 -100 Level New York TRACON
Wed 03:31:34 PM 40.3167 -73.9167 180° South 227 261 12,800 -828 Descending New York TRACON
Wed 03:32:30 PM 40.2636 -73.9072 172° South 231 266 11,400 -1,538 Descending New York Center
Wed 03:33:31 PM 40.2217 -73.8372 128° Southeast 211 243 9,800 -1,339 Descending New York Center
Wed 03:34:31 PM 40.1878 -73.7786 127° Southeast 220 253 8,700 -1,073 Descending New York Center
Wed 03:35:34 PM 40.2333 -73.7167 46° Northeast 265 305 7,600 -829 Descending New York TRACON
Wed 03:36:34 PM 40.3000 -73.6833 21° North 255 293 7,000 -300 Descending New York TRACON
Wed 03:37:34 PM 40.3667 -73.6500 21° North 252 290 7,000  Level New York TRACON
Wed 03:38:34 PM 40.4333 -73.6000 30° Northeast 250 288 7,000  Level New York TRACON
Wed 03:39:34 PM 40.4833 -73.5500 37° Northeast 252 290 7,000 -50 Level New York TRACON
Wed 03:40:34 PM 40.5500 -73.5000 30° Northeast 251 289 6,900 -550 Descending New York TRACON
Wed 03:41:34 PM 40.6167 -73.4667 21° North 249 287 5,900 -950 Descending New York TRACON
Wed 03:42:34 PM 40.6833 -73.4667 360° North 248 285 5,000 -800 Descending New York TRACON
Wed 03:43:34 PM 40.7333 -73.5000 333° Northwest 247 284 4,300 -700 Descending New York TRACON

Login

Don't have an account? Register now (free) for customized features, flight alerts, and more!